Time;durP1;ratioP1;P1;durP2;ratioP2;P2;SDS_P1;SDS_P2;PMS_P1;PMS_P2;Temp;Humidity;BMP_temperature;BMP_pressure;BME280_temperature;BME280_humidity;BME280_pressure;Samples;Min_cycle;Max_cycle;Signal;HPM_P1;HPM_P2
2022/04/28 00:00:00;;;;;;;16.15;6.90;;;5.90;99.90;;;;;;5094405;28;20046;-72
2022/04/28 00:02:25;;;;;;;12.02;6.68;;;5.80;99.90;;;;;;5094629;28;20036;-72
2022/04/28 00:04:51;;;;;;;12.10;6.43;;;5.80;99.90;;;;;;5094484;28;20449;-72
2022/04/28 00:07:17;;;;;;;14.90;5.97;;;5.80;99.90;;;;;;5076495;28;20673;-72
2022/04/28 00:09:42;;;;;;;15.18;7.18;;;5.80;99.90;;;;;;5094284;28;20550;-73
2022/04/28 00:12:10;;;;;;;19.60;8.18;;;5.80;99.90;;;;;;5094751;28;20040;-72
2022/04/28 00:14:36;;;;;;;24.02;6.65;;;5.90;99.90;;;;;;5076398;28;20408;-72
2022/04/28 00:17:02;;;;;;;16.85;7.10;;;5.80;99.90;;;;;;5093874;28;20067;-72
2022/04/28 00:19:28;;;;;;;14.85;7.35;;;5.80;99.90;;;;;;5094194;28;20117;-72
2022/04/28 00:21:53;;;;;;;16.00;7.65;;;5.80;99.90;;;;;;5094066;28;20044;-72
2022/04/28 00:24:19;;;;;;;13.43;6.82;;;5.80;99.90;;;;;;5094324;28;20492;-75
2022/04/28 00:26:44;;;;;;;12.20;6.75;;;5.90;99.90;;;;;;5076188;28;20071;-72
2022/04/28 00:29:10;;;;;;;15.93;6.22;;;5.80;99.90;;;;;;5075923;28;20047;-73
2022/04/28 00:31:35;;;;;;;14.65;6.53;;;5.80;99.90;;;;;;5094084;28;20044;-72
2022/04/28 00:34:01;;;;;;;11.73;6.82;;;5.80;99.90;;;;;;5075799;28;20040;-72
2022/04/28 00:36:26;;;;;;;14.75;7.53;;;5.70;99.90;;;;;;5093678;28;20044;-72
2022/04/28 00:38:52;;;;;;;14.70;6.80;;;5.70;99.90;;;;;;5093799;28;20044;-72
2022/04/28 00:41:18;;;;;;;11.88;6.43;;;5.70;99.90;;;;;;5093770;28;20396;-73
2022/04/28 00:43:51;;;;;;;16.73;6.57;;;5.50;99.90;;;;;;5075587;28;20450;-72
2022/04/28 00:46:18;;;;;;;19.13;7.28;;;5.50;99.90;;;;;;5075477;28;20036;-72
2022/04/28 00:51:30;;;;;;;22.75;6.72;;;5.40;99.90;;;;;;5075269;28;20040;-73
2022/04/28 00:53:58;;;;;;;10.82;6.65;;;5.30;99.90;;;;;;5075251;28;20051;-73
2022/04/28 00:56:25;;;;;;;12.38;6.57;;;5.30;99.90;;;;;;5093509;28;20044;-72
2022/04/28 00:58:51;;;;;;;11.05;6.18;;;5.30;99.90;;;;;;5092351;28;20044;-72
2022/04/28 01:01:17;;;;;;;14.57;6.50;;;5.30;99.90;;;;;;5075218;28;20044;-72
2022/04/28 01:03:45;;;;;;;16.85;6.47;;;5.20;99.90;;;;;;5075332;28;20036;-72
2022/04/28 01:06:12;;;;;;;14.63;6.72;;;5.20;99.90;;;;;;5093363;28;20408;-73
2022/04/28 01:08:37;;;;;;;12.70;6.70;;;5.20;99.90;;;;;;5074920;28;20039;-72
2022/04/28 01:11:03;;;;;;;10.32;6.43;;;5.10;99.90;;;;;;5093328;28;20039;-72
2022/04/28 01:13:29;;;;;;;12.38;6.68;;;5.10;99.90;;;;;;5093261;28;20044;-72
2022/04/28 01:15:54;;;;;;;16.17;6.30;;;5.10;99.90;;;;;;5092396;28;20043;-73
2022/04/28 01:18:20;;;;;;;13.32;6.13;;;5.00;99.90;;;;;;5074978;28;20058;-72
2022/04/28 01:20:46;;;;;;;13.30;6.43;;;5.00;99.90;;;;;;5074686;28;20057;-72
2022/04/28 01:23:12;;;;;;;16.27;6.68;;;4.90;99.90;;;;;;5093042;28;20036;-72
2022/04/28 01:25:37;;;;;;;13.15;6.60;;;4.90;99.90;;;;;;5092873;28;20435;-72
2022/04/28 01:28:03;;;;;;;15.32;6.63;;;4.90;99.90;;;;;;5074509;28;20054;-72
2022/04/28 01:30:29;;;;;;;12.48;6.95;;;5.00;99.90;;;;;;5074500;28;20039;-73
2022/04/28 01:32:57;;;;;;;14.30;6.95;;;4.90;99.90;;;;;;5093037;28;20503;-73
2022/04/28 01:35:23;;;;;;;14.40;6.55;;;4.80;99.90;;;;;;5092649;28;20040;-72
2022/04/28 01:37:49;;;;;;;20.15;7.13;;;4.80;99.90;;;;;;5092797;28;20047;-72
2022/04/28 01:40:16;;;;;;;15.50;7.03;;;4.70;99.90;;;;;;5074535;28;20047;-72
2022/04/28 01:42:42;;;;;;;10.88;6.35;;;4.80;99.90;;;;;;5057757;28;20062;-72
2022/04/28 01:45:09;;;;;;;15.23;7.00;;;4.80;99.90;;;;;;5092788;28;20104;-72
2022/04/28 01:47:36;;;;;;;11.68;6.22;;;4.80;99.90;;;;;;5092675;28;20040;-72
2022/04/28 01:50:03;;;;;;;19.17;7.63;;;4.70;99.90;;;;;;5092385;28;20063;-73
2022/04/28 01:55:13;;;;;;;12.07;7.18;;;4.60;99.90;;;;;;5092052;28;20051;-72
2022/04/28 01:57:39;;;;;;;14.63;7.32;;;4.60;99.90;;;;;;5092404;28;20036;-72
2022/04/28 02:00:06;;;;;;;12.77;7.22;;;4.70;99.90;;;;;;5073896;28;20071;-72
2022/04/28 02:02:33;;;;;;;15.68;7.05;;;4.60;99.90;;;;;;5092316;28;20044;-73
2022/04/28 02:04:58;;;;;;;16.88;6.93;;;4.60;99.90;;;;;;5092167;28;20040;-72
2022/04/28 02:07:25;;;;;;;14.27;7.13;;;4.60;99.90;;;;;;5092181;28;20443;-73
2022/04/28 02:09:51;;;;;;;13.52;7.05;;;4.50;99.90;;;;;;5073647;28;20044;-72
2022/04/28 02:12:16;;;;;;;20.65;7.85;;;4.50;99.90;;;;;;5074010;28;20051;-72
2022/04/28 02:14:42;;;;;;;14.43;7.95;;;4.50;99.90;;;;;;5074008;28;20040;-73
2022/04/28 02:17:08;;;;;;;14.70;6.90;;;4.40;99.90;;;;;;5074092;28;20213;-72
2022/04/28 02:19:35;;;;;;;14.65;7.22;;;4.40;99.90;;;;;;5073648;28;20043;-72
2022/04/28 02:22:01;;;;;;;15.43;8.70;;;4.40;99.90;;;;;;5074301;28;20040;-72
2022/04/28 02:24:27;;;;;;;20.50;7.45;;;4.40;99.90;;;;;;5074060;28;20040;-72
2022/04/28 02:26:53;;;;;;;12.98;7.35;;;4.30;99.90;;;;;;5074640;28;20135;-72
2022/04/28 02:29:18;;;;;;;14.10;7.15;;;4.30;99.90;;;;;;5057711;28;20043;-72
2022/04/28 02:31:47;;;;;;;15.18;7.30;;;4.30;99.90;;;;;;5092881;28;20039;-72
2022/04/28 02:34:13;;;;;;;13.10;6.90;;;4.30;99.90;;;;;;5092918;28;20032;-73
2022/04/28 02:36:38;;;;;;;14.23;7.57;;;4.20;99.90;;;;;;5076648;28;20052;-73
2022/04/28 02:39:04;;;;;;;16.05;7.78;;;4.30;99.90;;;;;;5075854;28;20044;-72
2022/04/28 02:41:29;;;;;;;16.58;7.80;;;4.30;99.90;;;;;;5076015;28;20051;-73
2022/04/28 02:43:55;;;;;;;15.52;7.43;;;4.20;99.90;;;;;;5059404;28;20035;-73
2022/04/28 02:46:20;;;;;;;13.30;7.47;;;4.20;99.90;;;;;;5078657;28;20046;-74
2022/04/28 02:48:46;;;;;;;15.93;6.85;;;4.10;99.90;;;;;;5082999;28;20071;-73
2022/04/28 02:51:12;;;;;;;14.82;7.10;;;4.20;99.90;;;;;;5077849;28;20044;-72
2022/04/28 02:53:38;;;;;;;9.60;6.55;;;4.20;99.90;;;;;;5073404;28;20497;-72
2022/04/28 02:56:04;;;;;;;9.68;6.63;;;3.80;99.90;;;;;;5073215;28;20032;-72
2022/04/28 02:58:31;;;;;;;13.20;7.15;;;3.60;99.90;;;;;;5073100;28;20042;-72
2022/04/28 03:00:57;;;;;;;12.90;6.65;;;3.70;99.90;;;;;;5056445;28;20032;-73
2022/04/28 03:03:22;;;;;;;15.52;7.10;;;3.80;99.90;;;;;;5091345;28;20393;-73
2022/04/28 03:11:16;;;;;;;12.73;7.03;;;3.80;99.90;;;;;;5091365;28;20118;-72
2022/04/28 03:13:42;;;;;;;14.85;6.85;;;3.80;99.90;;;;;;5091119;28;20548;-72
2022/04/28 03:16:08;;;;;;;17.02;7.03;;;3.80;99.90;;;;;;5090654;28;20260;-73
2022/04/28 03:18:33;;;;;;;10.13;6.18;;;3.80;99.90;;;;;;5091025;28;20059;-74
2022/04/28 03:20:59;;;;;;;16.98;7.50;;;3.70;99.90;;;;;;5091287;28;20105;-72
2022/04/28 03:23:25;;;;;;;13.07;7.00;;;3.80;99.90;;;;;;5097430;28;20039;-73
2022/04/28 03:25:51;;;;;;;12.63;7.47;;;3.80;99.90;;;;;;5097666;28;20038;-72
2022/04/28 03:28:21;;;;;;;12.30;6.65;;;3.70;99.90;;;;;;5079359;28;20052;-73
2022/04/28 03:30:48;;;;;;;15.77;6.80;;;3.60;99.90;;;;;;5097764;28;20068;-72
2022/04/28 03:33:15;;;;;;;12.15;7.30;;;3.60;99.90;;;;;;5097635;28;20635;-73
2022/04/28 03:35:41;;;;;;;14.75;7.65;;;3.70;99.90;;;;;;5079345;28;20044;-72
2022/04/28 03:38:11;;;;;;;13.27;6.28;;;3.60;99.90;;;;;;5079394;28;20088;-73
2022/04/28 03:40:38;;;;;;;11.88;7.10;;;3.60;99.90;;;;;;5079574;28;20047;-72
2022/04/28 03:43:04;;;;;;;21.33;8.27;;;3.40;99.90;;;;;;5079723;28;20123;-72
2022/04/28 03:45:30;;;;;;;14.43;7.85;;;3.40;99.90;;;;;;5097685;28;20510;-74
2022/04/28 03:47:56;;;;;;;14.57;8.65;;;3.40;99.90;;;;;;5097784;28;20056;-73
2022/04/28 03:50:21;;;;;;;14.85;7.68;;;3.50;99.90;;;;;;5062420;28;20050;-73
2022/04/28 03:52:47;;;;;;;13.25;8.02;;;3.40;99.90;;;;;;5097908;28;20377;-73
2022/04/28 03:55:12;;;;;;;16.17;8.95;;;3.30;99.90;;;;;;5097669;28;20086;-73
2022/04/28 03:57:38;;;;;;;16.35;8.43;;;3.40;99.90;;;;;;5097896;28;20043;-72
2022/04/28 04:00:06;;;;;;;11.50;7.95;;;3.40;99.90;;;;;;5079117;28;20036;-72
2022/04/28 04:02:32;;;;;;;17.33;8.48;;;3.40;99.90;;;;;;5079905;28;20055;-73
2022/04/28 04:04:58;;;;;;;13.25;7.07;;;3.40;99.90;;;;;;5097923;28;20036;-74
2022/04/28 04:07:28;;;;;;;14.73;7.43;;;3.50;99.90;;;;;;5060421;28;20442;-73
2022/04/28 04:09:55;;;;;;;18.77;8.02;;;3.50;99.90;;;;;;5077071;28;20059;-73
2022/04/28 04:12:20;;;;;;;17.75;8.00;;;3.50;99.90;;;;;;5096192;28;20048;-73
2022/04/28 04:14:46;;;;;;;14.35;7.47;;;3.60;99.90;;;;;;5077817;28;20044;-72
2022/04/28 04:17:12;;;;;;;18.58;7.70;;;3.70;99.90;;;;;;5063553;28;20073;-73
2022/04/28 04:19:37;;;;;;;15.52;7.78;;;3.80;99.90;;;;;;5098821;28;20405;-72
2022/04/28 04:22:03;;;;;;;14.57;7.25;;;3.80;99.90;;;;;;5097982;28;20055;-72
2022/04/28 04:24:30;;;;;;;12.75;7.40;;;3.90;99.90;;;;;;5097894;28;20050;-72
2022/04/28 04:26:56;;;;;;;14.38;7.50;;;4.00;99.90;;;;;;5098653;28;20563;-73
2022/04/28 04:29:21;;;;;;;18.45;8.55;;;4.00;99.90;;;;;;5103970;28;20040;-73
2022/04/28 04:34:31;;;;;;;17.92;7.47;;;4.10;99.90;;;;;;5080428;28;20048;-73
2022/04/28 04:36:57;;;;;;;17.50;7.60;;;4.20;99.90;;;;;;5100529;28;20373;-73
2022/04/28 04:39:22;;;;;;;14.55;8.52;;;4.40;99.90;;;;;;5099202;28;20692;-73
2022/04/28 04:41:48;;;;;;;21.80;8.70;;;4.40;99.90;;;;;;5076130;28;20462;-73
2022/04/28 04:44:14;;;;;;;15.40;8.63;;;4.50;99.90;;;;;;5093911;28;20538;-73
2022/04/28 04:46:43;;;;;;;13.15;9.60;;;4.50;99.90;;;;;;5075684;28;20134;-74
2022/04/28 04:49:08;;;;;;;18.42;9.27;;;4.70;99.90;;;;;;5093491;28;20119;-73
2022/04/28 04:51:34;;;;;;;18.95;8.48;;;4.70;99.90;;;;;;5075559;28;20466;-73
2022/04/28 04:54:00;;;;;;;18.95;9.07;;;4.70;99.90;;;;;;5075428;28;20044;-73
2022/04/28 04:56:26;;;;;;;16.63;10.30;;;4.80;99.90;;;;;;5093465;28;20036;-73
2022/04/28 04:58:51;;;;;;;15.60;8.68;;;4.80;99.90;;;;;;5093150;28;20040;-73
2022/04/28 05:01:17;;;;;;;14.35;7.57;;;4.90;99.90;;;;;;5058493;28;20063;-73
2022/04/28 05:03:42;;;;;;;14.27;7.55;;;5.00;99.90;;;;;;5075390;28;20507;-73
2022/04/28 05:06:08;;;;;;;16.80;9.85;;;5.00;99.90;;;;;;5093471;28;20036;-74
2022/04/28 05:08:34;;;;;;;16.98;7.72;;;5.10;99.90;;;;;;5074763;28;20039;-74
2022/04/28 05:10:59;;;;;;;15.07;8.63;;;5.10;99.90;;;;;;5075251;28;20419;-73
2022/04/28 05:13:25;;;;;;;11.85;8.05;;;5.10;99.90;;;;;;5093282;28;20040;-73
2022/04/28 05:15:51;;;;;;;14.05;8.18;;;5.20;99.90;;;;;;5092828;28;20687;-73
2022/04/28 05:18:16;;;;;;;17.20;8.80;;;5.20;99.90;;;;;;5093010;28;20047;-74
2022/04/28 05:20:42;;;;;;;21.10;9.38;;;5.40;99.90;;;;;;5074779;28;20389;-72
2022/04/28 05:23:08;;;;;;;17.63;8.20;;;5.40;99.90;;;;;;5075068;28;20032;-73
2022/04/28 05:25:33;;;;;;;18.02;8.63;;;5.40;99.90;;;;;;5093081;28;20040;-73
2022/04/28 05:27:59;;;;;;;17.40;9.65;;;5.40;99.90;;;;;;5074671;28;20046;-73
2022/04/28 05:30:24;;;;;;;18.27;10.25;;;5.50;99.90;;;;;;5092532;28;20104;-73
2022/04/28 05:32:50;;;;;;;14.82;8.35;;;5.50;99.90;;;;;;5074773;28;20046;-73
2022/04/28 05:35:16;;;;;;;19.60;9.40;;;5.50;99.90;;;;;;5092706;28;20434;-73
2022/04/28 05:37:42;;;;;;;17.73;9.30;;;5.50;99.90;;;;;;5074477;28;20094;-73
2022/04/28 05:40:09;;;;;;;17.38;8.65;;;5.60;99.90;;;;;;5074138;28;20031;-73
2022/04/28 05:48:04;;;;;;;19.77;9.18;;;5.90;99.90;;;;;;5074642;28;20035;-73
2022/04/28 05:50:29;;;;;;;12.02;8.65;;;5.90;99.90;;;;;;5074098;28;20093;-72
2022/04/28 05:52:55;;;;;;;15.63;9.13;;;5.90;99.90;;;;;;5074143;28;20040;-72
2022/04/28 05:55:21;;;;;;;15.23;8.13;;;6.10;99.90;;;;;;5074045;28;20042;-72
2022/04/28 05:57:46;;;;;;;19.88;9.13;;;6.20;99.90;;;;;;5092349;28;20095;-72
2022/04/28 06:00:12;;;;;;;23.70;9.70;;;6.30;99.90;;;;;;5091823;28;20377;-72
2022/04/28 06:02:38;;;;;;;17.38;9.98;;;6.30;99.90;;;;;;5074402;28;20420;-72
2022/04/28 06:05:04;;;;;;;19.73;9.50;;;6.40;99.90;;;;;;5092160;28;20028;-72
2022/04/28 06:07:30;;;;;;;18.98;10.15;;;6.40;99.90;;;;;;5092124;28;20056;-72
2022/04/28 06:09:55;;;;;;;22.20;10.73;;;6.40;99.90;;;;;;5073595;28;20515;-73
2022/04/28 06:12:24;;;;;;;17.60;9.05;;;6.40;99.90;;;;;;5092247;28;20039;-72
2022/04/28 06:14:49;;;;;;;18.27;8.52;;;6.50;99.90;;;;;;5091848;28;20500;-73
2022/04/28 06:17:15;;;;;;;21.50;9.68;;;6.50;99.90;;;;;;5091742;28;20039;-72
2022/04/28 06:19:41;;;;;;;17.73;8.57;;;6.50;99.90;;;;;;5073691;28;20474;-72
2022/04/28 06:22:06;;;;;;;18.25;8.25;;;6.50;99.90;;;;;;5091764;28;20048;-72
2022/04/28 06:24:32;;;;;;;17.48;8.98;;;6.60;99.90;;;;;;5073684;28;20047;-72
2022/04/28 06:26:57;;;;;;;15.55;8.63;;;6.70;99.90;;;;;;5091871;28;20043;-72
2022/04/28 06:29:23;;;;;;;14.75;8.88;;;6.70;99.90;;;;;;5091463;28;20170;-72
2022/04/28 06:31:48;;;;;;;17.92;9.50;;;6.80;99.90;;;;;;5091681;28;20040;-73
2022/04/28 06:34:14;;;;;;;15.55;8.13;;;6.80;99.90;;;;;;5073378;28;20462;-73
2022/04/28 06:36:39;;;;;;;15.00;7.97;;;6.90;99.90;;;;;;5091747;28;20070;-72
2022/04/28 06:39:05;;;;;;;17.35;8.40;;;6.90;99.90;;;;;;5091599;28;20036;-72
2022/04/28 06:41:30;;;;;;;14.68;8.35;;;6.90;99.90;;;;;;5056907;28;20450;-73
2022/04/28 06:43:56;;;;;;;14.45;8.07;;;7.00;99.90;;;;;;5091541;28;20059;-73
2022/04/28 06:46:22;;;;;;;20.02;7.70;;;7.00;99.90;;;;;;5091459;28;20048;-72
2022/04/28 06:48:48;;;;;;;12.93;8.02;;;7.10;99.90;;;;;;5091135;28;20123;-72
2022/04/28 06:51:14;;;;;;;16.02;7.78;;;7.20;99.90;;;;;;5073258;28;20047;-72
2022/04/28 06:53:40;;;;;;;14.30;7.72;;;7.20;99.90;;;;;;5073479;28;20083;-72
2022/04/28 06:56:06;;;;;;;17.38;8.18;;;7.30;99.90;;;;;;5072570;28;20083;-72
2022/04/28 06:58:33;;;;;;;16.90;8.05;;;7.30;99.90;;;;;;5090851;28;20430;-72
2022/04/28 07:00:58;;;;;;;18.95;7.95;;;7.30;99.90;;;;;;5091118;28;20065;-72
2022/04/28 07:03:24;;;;;;;23.13;7.95;;;7.40;99.90;;;;;;5091239;28;20037;-72
2022/04/28 07:05:50;;;;;;;15.32;7.53;;;7.40;99.90;;;;;;5091351;28;20046;-72
2022/04/28 07:08:16;;;;;;;16.80;6.85;;;7.50;99.90;;;;;;5073282;28;20467;-72
2022/04/28 07:10:41;;;;;;;19.80;7.10;;;7.60;99.90;;;;;;5091146;28;20063;-73
2022/04/28 07:13:10;;;;;;;15.13;6.32;;;7.70;99.90;;;;;;5091040;28;20040;-72
2022/04/28 07:15:37;;;;;;;16.08;6.28;;;7.70;99.90;;;;;;5090992;28;20039;-72
2022/04/28 07:18:04;;;;;;;19.50;7.25;;;7.80;99.90;;;;;;5090995;28;20499;-72
2022/04/28 07:20:34;;;;;;;11.05;6.53;;;7.90;99.90;;;;;;5072638;28;20500;-72
2022/04/28 07:23:00;;;;;;;13.18;6.03;;;7.90;99.90;;;;;;5072878;28;20048;-72
2022/04/28 07:25:29;;;;;;;11.43;5.85;;;8.00;99.90;;;;;;5073004;28;20047;-73
2022/04/28 07:27:56;;;;;;;14.90;6.57;;;8.10;99.90;;;;;;5090925;28;20519;-73
2022/04/28 07:30:22;;;;;;;19.52;6.32;;;8.20;99.90;;;;;;5090739;28;20069;-72
2022/04/28 07:32:49;;;;;;;14.57;6.72;;;8.30;99.90;;;;;;5090914;28;20136;-72
2022/04/28 07:35:15;;;;;;;17.48;6.18;;;8.40;99.90;;;;;;5090902;28;20149;-72
2022/04/28 07:37:41;;;;;;;21.23;6.53;;;8.50;99.90;;;;;;5072986;28;20040;-72
2022/04/28 07:40:07;;;;;;;10.82;6.90;;;8.60;99.90;;;;;;5090607;28;20043;-72
2022/04/28 07:42:33;;;;;;;12.57;6.03;;;8.70;99.90;;;;;;5090745;28;20046;-72
2022/04/28 07:44:59;;;;;;;11.40;6.25;;;8.70;99.90;;;;;;5090747;28;20459;-72
2022/04/28 07:47:28;;;;;;;18.00;6.38;;;8.80;99.90;;;;;;5072625;28;20459;-72
2022/04/28 07:49:54;;;;;;;12.82;5.80;;;8.90;99.90;;;;;;5090378;28;20042;-73
2022/04/28 07:52:20;;;;;;;12.05;5.38;;;9.10;99.90;;;;;;5072769;28;20044;-74
2022/04/28 07:54:45;;;;;;;16.90;5.88;;;9.20;99.90;;;;;;5072654;28;20039;-72
2022/04/28 07:57:11;;;;;;;14.10;5.45;;;9.30;99.90;;;;;;5072409;28;20090;-72
2022/04/28 07:59:37;;;;;;;14.43;5.82;;;9.40;99.90;;;;;;5090261;28;20032;-72
2022/04/28 08:02:03;;;;;;;11.40;6.53;;;9.30;99.90;;;;;;5072488;28;20039;-72
2022/04/28 08:04:29;;;;;;;17.23;6.10;;;9.30;99.90;;;;;;5090495;28;20032;-72
2022/04/28 08:06:55;;;;;;;8.07;4.90;;;9.30;99.90;;;;;;5090673;28;20044;-72
2022/04/28 08:09:21;;;;;;;8.07;5.07;;;9.40;99.90;;;;;;5093539;28;20302;-72
2022/04/28 08:11:46;;;;;;;15.85;4.88;;;9.30;99.90;;;;;;5094330;28;20032;-72
2022/04/28 08:14:12;;;;;;;14.55;5.20;;;9.40;99.90;;;;;;5094304;28;20044;-72
2022/04/28 08:16:37;;;;;;;8.88;4.68;;;9.50;99.90;;;;;;5075544;28;20077;-72
2022/04/28 08:19:04;;;;;;;11.40;4.45;;;9.50;99.90;;;;;;5075731;28;20118;-72
2022/04/28 08:21:29;;;;;;;16.17;4.75;;;9.60;99.90;;;;;;5076183;28;20035;-72
2022/04/28 08:23:55;;;;;;;11.57;5.10;;;9.60;99.90;;;;;;5094053;28;20039;-73
2022/04/28 08:26:21;;;;;;;10.75;4.38;;;9.60;99.90;;;;;;5075750;28;20040;-72
2022/04/28 08:28:47;;;;;;;8.10;4.15;;;9.60;99.90;;;;;;5093736;28;20127;-73
2022/04/28 08:31:12;;;;;;;13.43;4.50;;;9.70;99.90;;;;;;5076065;28;20036;-73
2022/04/28 08:33:38;;;;;;;14.00;5.40;;;9.70;99.90;;;;;;5075948;28;20044;-72
2022/04/28 08:36:03;;;;;;;15.30;4.88;;;9.70;99.90;;;;;;5093824;28;20038;-72
2022/04/28 08:38:31;;;;;;;16.17;6.22;;;9.80;99.90;;;;;;5075634;28;20040;-73
2022/04/28 08:41:01;;;;;;;6.93;4.25;;;9.90;99.90;;;;;;5058948;28;20036;-72
2022/04/28 08:43:30;;;;;;;11.02;4.63;;;9.90;99.90;;;;;;5075918;28;20430;-73
2022/04/28 08:48:51;;;;;;;11.80;5.30;;;10.00;99.90;;;;;;5075107;28;20109;-72
2022/04/28 08:51:18;;;;;;;11.63;4.45;;;10.10;99.90;;;;;;5075535;28;20492;-72
2022/04/28 08:53:48;;;;;;;11.75;4.07;;;10.10;99.90;;;;;;5075384;28;20086;-72
2022/04/28 08:56:15;;;;;;;8.80;4.30;;;10.20;99.90;;;;;;5075261;28;20040;-73
2022/04/28 08:58:41;;;;;;;9.25;4.00;;;10.30;99.90;;;;;;5075024;28;20074;-72
2022/04/28 09:01:06;;;;;;;16.67;4.93;;;10.40;99.90;;;;;;5075339;28;20148;-72
2022/04/28 09:03:32;;;;;;;10.45;4.43;;;10.40;99.90;;;;;;5075469;28;20122;-73
2022/04/28 09:06:14;;;;;;;10.75;4.03;;;10.50;99.90;;;;;;5075132;28;20484;-71
2022/04/28 09:08:40;;;;;;;10.00;4.30;;;10.50;99.90;;;;;;5074821;28;20044;-73
2022/04/28 09:11:19;;;;;;;10.20;4.82;;;10.60;99.90;;;;;;5075183;28;20408;-72
2022/04/28 09:14:09;;;;;;;13.45;4.30;;;10.70;99.90;;;;;;5075337;28;20438;-73
2022/04/28 09:16:42;;;;;;;6.00;3.78;;;10.80;99.90;;;;;;5074559;28;20526;-72
2022/04/28 09:19:08;;;;;;;;;;;10.90;99.90;;;;;;5075005;28;20032;-74
2022/04/28 09:21:35;;;;;;;17.77;4.03;;;10.70;99.90;;;;;;5074829;28;20338;-74
2022/04/28 09:24:02;;;;;;;13.38;5.03;;;10.80;99.90;;;;;;5074765;28;20097;-72
2022/04/28 09:26:29;;;;;;;8.93;3.80;;;10.90;99.90;;;;;;5074634;28;20043;-72
2022/04/28 09:28:55;;;;;;;9.13;3.28;;;10.90;99.90;;;;;;5092724;28;20051;-72
2022/04/28 09:31:23;;;;;;;6.60;3.35;;;10.80;99.90;;;;;;5092897;28;20047;-73
2022/04/28 09:33:49;;;;;;;10.20;3.58;;;10.90;99.90;;;;;;5074622;28;20044;-74
2022/04/28 09:36:15;;;;;;;13.15;3.80;;;11.00;99.90;;;;;;5074396;28;20039;-73
2022/04/28 09:38:40;;;;;;;15.38;3.92;;;11.10;99.90;;;;;;5092437;28;20044;-72
2022/04/28 09:43:55;;;;;;;5.85;3.65;;;11.30;99.90;;;;;;5074419;28;20048;-73
2022/04/28 09:46:23;;;;;;;14.05;3.63;;;11.50;99.90;;;;;;5074491;28;20071;-73
2022/04/28 09:48:50;;;;;;;9.65;3.40;;;11.70;99.90;;;;;;5092243;28;20039;-73
2022/04/28 09:51:22;;;;;;;7.47;2.80;;;11.70;99.90;;;;;;5092717;28;20040;-73
2022/04/28 09:53:48;;;;;;;10.57;3.13;;;11.80;99.90;;;;;;5057616;28;20139;-74
2022/04/28 09:56:18;;;;;;;10.68;3.25;;;11.70;99.90;;;;;;5074008;28;20044;-73
2022/04/28 09:58:45;;;;;;;5.95;2.72;;;11.90;99.90;;;;;;5073766;28;20120;-73
2022/04/28 10:01:11;;;;;;;12.57;3.85;;;12.00;99.90;;;;;;5092236;28;20040;-73
2022/04/28 10:03:40;;;;;;;12.00;3.25;;;12.10;99.90;;;;;;5073901;28;20119;-72
2022/04/28 10:06:06;;;;;;;16.38;3.42;;;12.10;99.90;;;;;;5092063;28;20492;-73
2022/04/28 10:08:36;;;;;;;6.25;2.90;;;12.20;99.90;;;;;;5057225;28;20036;-73
2022/04/28 10:11:06;;;;;;;11.75;3.22;;;12.20;99.90;;;;;;5074077;28;20446;-72
2022/04/28 10:13:33;;;;;;;7.78;3.83;;;12.40;99.90;;;;;;5092158;28;20036;-73
2022/04/28 10:16:07;;;;;;;13.57;3.70;;;12.30;99.90;;;;;;5091782;28;20093;-73
2022/04/28 10:18:38;;;;;;;5.93;3.55;;;12.30;99.90;;;;;;5057188;28;20072;-72
2022/04/28 10:21:07;;;;;;;10.25;3.60;;;12.30;99.90;;;;;;5073750;28;20047;-73
2022/04/28 10:35:15;;;;;;;8.35;3.20;;;13.00;99.90;;;;;;5073592;28;20407;-73
2022/04/28 10:37:45;;;;;;;12.25;2.65;;;12.60;99.90;;;;;;4992635;28;20061;-73
2022/04/28 10:40:16;;;;;;;6.13;2.90;;;12.60;99.90;;;;;;5009027;28;20429;-72
2022/04/28 10:42:45;;;;;;;9.73;2.92;;;12.70;99.90;;;;;;5009155;28;20544;-74
2022/04/28 10:45:23;;;;;;;12.23;3.03;;;12.80;99.90;;;;;;4992525;28;20049;-73
2022/04/28 10:47:48;;;;;;;12.82;3.83;;;12.90;99.90;;;;;;4992668;28;20057;-73
2022/04/28 10:50:22;;;;;;;6.90;3.00;;;13.00;99.90;;;;;;5008703;28;20046;-74
2022/04/28 10:52:55;;;;;;;8.10;3.17;;;13.10;99.90;;;;;;4992767;28;20046;-73
2022/04/28 10:55:23;;;;;;;13.38;4.25;;;13.10;99.90;;;;;;4992849;28;20113;-73
2022/04/28 10:57:49;;;;;;;7.75;3.30;;;13.00;99.90;;;;;;4992358;28;20057;-72
2022/04/28 11:00:35;;;;;;;13.13;3.05;;;12.90;99.90;;;;;;4992107;28;20062;-73
2022/04/28 11:03:01;;;;;;;11.32;3.13;;;12.90;99.90;;;;;;4992506;28;20081;-73
2022/04/28 11:05:30;;;;;;;8.15;3.10;;;12.90;99.90;;;;;;4992634;28;20363;-73
2022/04/28 11:08:00;;;;;;;8.68;2.92;;;13.00;99.90;;;;;;4992299;28;20057;-72
2022/04/28 11:10:27;;;;;;;10.23;2.97;;;12.90;99.90;;;;;;4992275;28;20045;-73
2022/04/28 11:12:54;;;;;;;10.48;3.63;;;12.90;99.90;;;;;;5020284;28;20051;-73
2022/04/28 11:15:20;;;;;;;10.10;3.33;;;12.80;99.90;;;;;;5073155;28;20040;-73
2022/04/28 11:17:45;;;;;;;11.73;3.35;;;13.00;99.90;;;;;;5072626;28;20055;-72
2022/04/28 11:20:13;;;;;;;6.85;3.60;;;13.00;99.90;;;;;;5072618;28;20039;-74
2022/04/28 11:22:47;;;;;;;8.20;3.50;;;13.00;99.90;;;;;;5073032;28;20051;-73
2022/04/28 11:25:15;;;;;;;11.77;3.65;;;13.10;99.90;;;;;;5072856;28;20042;-72
2022/04/28 11:27:41;;;;;;;10.43;3.88;;;13.10;99.90;;;;;;5091117;28;20048;-73
2022/04/28 11:30:11;;;;;;;11.18;3.70;;;13.10;99.90;;;;;;5072430;28;20040;-73
2022/04/28 11:32:57;;;;;;;12.20;3.97;;;13.00;99.90;;;;;;5091086;28;20050;-72
2022/04/28 11:35:39;;;;;;;7.50;3.97;;;13.20;99.90;;;;;;5056189;28;20404;-73
2022/04/28 11:38:04;;;;;;;10.47;3.47;;;13.10;99.90;;;;;;5090919;28;20051;-72
2022/04/28 11:40:33;;;;;;;9.40;3.63;;;13.20;99.90;;;;;;5090507;28;20119;-73
2022/04/28 11:43:00;;;;;;;13.65;3.60;;;13.40;99.90;;;;;;5073898;28;20677;-73
2022/04/28 11:45:29;;;;;;;12.13;3.97;;;13.30;99.90;;;;;;5077005;28;20431;-72
2022/04/28 11:47:56;;;;;;;9.50;3.92;;;13.30;99.90;;;;;;5094939;28;20048;-73
2022/04/28 11:50:26;;;;;;;8.75;3.67;;;13.10;99.90;;;;;;5059793;28;20123;-73
2022/04/28 11:53:06;;;;;;;8.98;3.60;;;13.10;99.90;;;;;;5076628;28;20036;-74
2022/04/28 11:55:36;;;;;;;10.55;4.38;;;13.20;99.90;;;;;;5076370;28;20036;-74
2022/04/28 11:58:03;;;;;;;17.80;3.90;;;13.30;99.90;;;;;;5076661;28;20040;-73
2022/04/28 12:00:35;;;;;;;7.90;3.88;;;13.40;99.90;;;;;;5059256;28;20047;-74
2022/04/28 12:03:01;;;;;;;14.80;4.07;;;13.30;99.90;;;;;;5076715;28;20036;-73
2022/04/28 12:05:27;;;;;;;11.10;4.57;;;13.20;99.90;;;;;;5076400;28;20548;-72
2022/04/28 12:07:53;;;;;;;10.02;4.28;;;13.10;99.90;;;;;;5076591;28;20442;-72
2022/04/28 12:16:01;;;;;;;9.75;3.97;;;13.50;99.90;;;;;;5075829;28;20109;-73
2022/04/28 12:21:18;;;;;;;9.20;4.13;;;13.50;99.90;;;;;;5076167;28;20408;-73
2022/04/28 12:23:46;;;;;;;11.20;4.95;;;13.50;99.90;;;;;;5076006;28;20542;-72
2022/04/28 12:26:13;;;;;;;9.48;4.22;;;13.60;99.90;;;;;;5075807;28;20128;-72
2022/04/28 12:28:44;;;;;;;9.70;4.30;;;13.80;99.90;;;;;;5075606;28;20124;-74
2022/04/28 12:31:15;;;;;;;9.20;3.80;;;13.80;99.90;;;;;;5076332;28;20446;-73
2022/04/28 12:33:44;;;;;;;14.45;4.60;;;13.70;99.90;;;;;;5075990;28;20134;-74
2022/04/28 12:36:13;;;;;;;7.78;4.07;;;13.70;99.90;;;;;;5075975;28;20074;-73
2022/04/28 12:38:49;;;;;;;15.60;4.25;;;13.80;99.90;;;;;;5075745;28;20084;-72
2022/04/28 12:41:23;;;;;;;14.70;4.32;;;13.70;99.90;;;;;;5076535;28;20040;-75
2022/04/28 12:43:57;;;;;;;10.45;4.28;;;13.80;99.90;;;;;;5095250;28;20036;-73
2022/04/28 12:46:32;;;;;;;7.80;4.30;;;13.80;99.90;;;;;;5076810;28;20040;-73
2022/04/28 12:48:59;;;;;;;13.63;4.10;;;13.80;99.90;;;;;;5076260;28;20131;-73
2022/04/28 12:51:28;;;;;;;12.18;4.40;;;14.00;99.90;;;;;;5077661;28;20032;-73
2022/04/28 12:54:15;;;;;;;11.02;4.35;;;13.90;99.90;;;;;;5062578;28;20051;-73
2022/04/28 12:56:43;;;;;;;8.63;4.15;;;13.90;99.90;;;;;;5098379;28;20043;-73
2022/04/28 12:59:10;;;;;;;15.32;4.57;;;13.80;99.90;;;;;;5079498;28;20032;-73
2022/04/28 13:01:38;;;;;;;10.43;4.53;;;13.90;99.90;;;;;;5079833;28;20044;-73
2022/04/28 13:04:12;;;;;;;8.63;4.55;;;13.90;99.90;;;;;;5076973;28;20036;-73
2022/04/28 13:06:40;;;;;;;11.10;4.05;;;13.90;99.90;;;;;;5075239;28;20492;-73
2022/04/28 13:09:07;;;;;;;15.80;4.72;;;14.10;99.90;;;;;;5075059;28;20051;-73
2022/04/28 13:11:35;;;;;;;8.20;4.30;;;14.00;99.90;;;;;;5075421;28;20416;-73
2022/04/28 13:14:01;;;;;;;9.63;4.15;;;14.10;99.90;;;;;;5075398;28;20052;-73
2022/04/28 13:16:28;;;;;;;10.10;3.33;;;14.10;99.90;;;;;;5092852;28;20057;-73
2022/04/28 13:18:55;;;;;;;9.95;4.10;;;14.20;99.90;;;;;;5074708;28;20043;-74
2022/04/28 13:21:21;;;;;;;15.85;4.10;;;14.30;99.90;;;;;;5075234;28;20506;-73
2022/04/28 13:23:47;;;;;;;14.85;4.85;;;14.10;99.90;;;;;;5093021;28;20036;-73
2022/04/28 13:26:15;;;;;;;14.57;3.90;;;13.80;99.90;;;;;;5058688;28;20748;-73
2022/04/28 13:28:41;;;;;;;11.73;4.63;;;14.00;99.90;;;;;;5074599;28;20052;-73